sensor_id;sensor_type;location;lat;lon;timestamp;temperature;humidity
15676;DHT22;7938;47.666;9.434;2023-09-12T04:01:14;13.70;99.90
15676;DHT22;7938;47.666;9.434;2023-09-12T04:03:40;13.70;99.90
15676;DHT22;7938;47.666;9.434;2023-09-12T04:06:07;13.70;99.90
15676;DHT22;7938;47.666;9.434;2023-09-12T04:08:35;13.70;99.90
15676;DHT22;7938;47.666;9.434;2023-09-12T04:11:01;13.70;99.90
15676;DHT22;7938;47.666;9.434;2023-09-12T04:13:28;13.70;99.90
15676;DHT22;7938;47.666;9.434;2023-09-12T04:15:56;13.70;99.90
15676;DHT22;7938;47.666;9.434;2023-09-12T04:18:24;13.70;99.90
15676;DHT22;7938;47.666;9.434;2023-09-12T04:20:51;13.60;99.90
15676;DHT22;7938;47.666;9.434;2023-09-12T04:23:17;13.60;99.90
15676;DHT22;7938;47.666;9.434;2023-09-12T04:25:46;13.80;99.90
15676;DHT22;7938;47.666;9.434;2023-09-12T04:28:13;13.80;99.90
15676;DHT22;7938;47.666;9.434;2023-09-12T04:30:39;13.70;99.90
15676;DHT22;7938;47.666;9.434;2023-09-12T04:33:06;13.70;99.90
15676;DHT22;7938;47.666;9.434;2023-09-12T04:35:35;13.70;99.90
15676;DHT22;7938;47.666;9.434;2023-09-12T04:38:02;13.80;99.90
15676;DHT22;7938;47.666;9.434;2023-09-12T04:40:29;13.60;99.90
15676;DHT22;7938;47.666;9.434;2023-09-12T04:42:56;13.60;99.90
15676;DHT22;7938;47.666;9.434;2023-09-12T04:45:23;13.50;99.90
15676;DHT22;7938;47.666;9.434;2023-09-12T04:47:50;13.40;99.90
15676;DHT22;7938;47.666;9.434;2023-09-12T04:50:17;13.50;99.90
15676;DHT22;7938;47.666;9.434;2023-09-12T04:52:45;13.50;99.90
15676;DHT22;7938;47.666;9.434;2023-09-12T04:55:12;13.50;99.90
15676;DHT22;7938;47.666;9.434;2023-09-12T04:57:39;13.60;99.90
15676;DHT22;7938;47.666;9.434;2023-09-12T05:00:07;13.40;99.90
15676;DHT22;7938;47.666;9.434;2023-09-12T05:02:36;13.30;99.90
15676;DHT22;7938;47.666;9.434;2023-09-12T05:05:03;13.30;99.90
15676;DHT22;7938;47.666;9.434;2023-09-12T05:07:30;13.40;99.90
15676;DHT22;7938;47.666;9.434;2023-09-12T05:09:58;13.40;99.90
15676;DHT22;7938;47.666;9.434;2023-09-12T05:12:25;13.50;99.90
15676;DHT22;7938;47.666;9.434;2023-09-12T05:14:52;13.50;99.90
15676;DHT22;7938;47.666;9.434;2023-09-12T05:17:19;13.50;99.90
15676;DHT22;7938;47.666;9.434;2023-09-12T05:19:46;13.50;99.90
15676;DHT22;7938;47.666;9.434;2023-09-12T05:22:13;13.50;99.90
15676;DHT22;7938;47.666;9.434;2023-09-12T05:24:40;13.60;99.90
15676;DHT22;7938;47.666;9.434;2023-09-12T05:27:08;13.60;99.90
15676;DHT22;7938;47.666;9.434;2023-09-12T05:29:35;13.70;99.90
15676;DHT22;7938;47.666;9.434;2023-09-12T05:32:02;13.70;99.90
15676;DHT22;7938;47.666;9.434;2023-09-12T05:37:04;13.90;99.90
15676;DHT22;7938;47.666;9.434;2023-09-12T05:39:32;13.90;99.90
15676;DHT22;7938;47.666;9.434;2023-09-12T05:42:22;14.10;99.90
15676;DHT22;7938;47.666;9.434;2023-09-12T05:44:49;14.10;99.90
15676;DHT22;7938;47.666;9.434;2023-09-12T05:47:18;14.20;99.90
15676;DHT22;7938;47.666;9.434;2023-09-12T05:49:45;14.20;99.90
15676;DHT22;7938;47.666;9.434;2023-09-12T05:52:12;14.40;99.90
15676;DHT22;7938;47.666;9.434;2023-09-12T05:54:39;14.40;99.90
15676;DHT22;7938;47.666;9.434;2023-09-12T05:57:07;14.50;99.90
15676;DHT22;7938;47.666;9.434;2023-09-12T05:59:37;14.60;99.90
15676;DHT22;7938;47.666;9.434;2023-09-12T06:02:05;14.80;99.90
15676;DHT22;7938;47.666;9.434;2023-09-12T06:04:33;14.80;99.90
15676;DHT22;7938;47.666;9.434;2023-09-12T06:07:02;14.90;99.90
15676;DHT22;7938;47.666;9.434;2023-09-12T06:09:29;15.10;99.90
15676;DHT22;7938;47.666;9.434;2023-09-12T06:11:56;15.40;99.90
15676;DHT22;7938;47.666;9.434;2023-09-12T06:14:23;15.40;99.90
15676;DHT22;7938;47.666;9.434;2023-09-12T06:16:51;15.60;99.90
15676;DHT22;7938;47.666;9.434;2023-09-12T06:19:19;15.60;99.90
15676;DHT22;7938;47.666;9.434;2023-09-12T06:21:46;15.80;99.90
15676;DHT22;7938;47.666;9.434;2023-09-12T06:24:14;15.90;99.90
15676;DHT22;7938;47.666;9.434;2023-09-12T06:26:41;16.00;99.90
15676;DHT22;7938;47.666;9.434;2023-09-12T06:29:08;16.20;99.90
15676;DHT22;7938;47.666;9.434;2023-09-12T06:31:35;16.40;99.90
15676;DHT22;7938;47.666;9.434;2023-09-12T06:34:04;16.60;99.90
15676;DHT22;7938;47.666;9.434;2023-09-12T06:36:30;16.80;99.90
15676;DHT22;7938;47.666;9.434;2023-09-12T06:38:58;16.90;99.90
15676;DHT22;7938;47.666;9.434;2023-09-12T06:41:25;17.10;99.90
15676;DHT22;7938;47.666;9.434;2023-09-12T06:43:52;17.30;99.90
15676;DHT22;7938;47.666;9.434;2023-09-12T06:46:21;17.50;99.90
15676;DHT22;7938;47.666;9.434;2023-09-12T06:48:47;17.70;99.90
15676;DHT22;7938;47.666;9.434;2023-09-12T06:51:17;17.80;99.90
15676;DHT22;7938;47.666;9.434;2023-09-12T06:53:44;18.00;99.90
15676;DHT22;7938;47.666;9.434;2023-09-12T06:56:11;18.20;99.90
15676;DHT22;7938;47.666;9.434;2023-09-12T06:58:38;18.50;99.90
15676;DHT22;7938;47.666;9.434;2023-09-12T07:01:05;18.60;99.90
15676;DHT22;7938;47.666;9.434;2023-09-12T07:03:33;18.80;99.90
15676;DHT22;7938;47.666;9.434;2023-09-12T07:06:00;19.20;99.90
15676;DHT22;7938;47.666;9.434;2023-09-12T07:08:29;19.20;99.90
15676;DHT22;7938;47.666;9.434;2023-09-12T07:10:56;19.10;99.90
15676;DHT22;7938;47.666;9.434;2023-09-12T07:13:24;19.20;99.90
15676;DHT22;7938;47.666;9.434;2023-09-12T07:15:51;19.30;99.90
15676;DHT22;7938;47.666;9.434;2023-09-12T07:18:18;19.30;99.90
15676;DHT22;7938;47.666;9.434;2023-09-12T07:20:46;19.30;99.90
15676;DHT22;7938;47.666;9.434;2023-09-12T07:23:13;19.30;99.90
15676;DHT22;7938;47.666;9.434;2023-09-12T07:25:41;19.50;99.90
15676;DHT22;7938;47.666;9.434;2023-09-12T07:28:08;19.70;99.90
15676;DHT22;7938;47.666;9.434;2023-09-12T07:30:35;19.80;99.90
15676;DHT22;7938;47.666;9.434;2023-09-12T07:33:02;20.10;99.90
15676;DHT22;7938;47.666;9.434;2023-09-12T07:35:29;20.10;99.90
15676;DHT22;7938;47.666;9.434;2023-09-12T07:37:56;20.30;99.90
15676;DHT22;7938;47.666;9.434;2023-09-12T07:40:23;20.20;99.90
15676;DHT22;7938;47.666;9.434;2023-09-12T07:42:51;20.30;99.90
15676;DHT22;7938;47.666;9.434;2023-09-12T07:45:18;20.40;99.90
15676;DHT22;7938;47.666;9.434;2023-09-12T07:47:45;20.50;99.90
15676;DHT22;7938;47.666;9.434;2023-09-12T07:50:12;20.50;99.90
15676;DHT22;7938;47.666;9.434;2023-09-12T07:52:39;20.70;99.90
15676;DHT22;7938;47.666;9.434;2023-09-12T07:55:07;20.60;99.90
15676;DHT22;7938;47.666;9.434;2023-09-12T07:57:34;20.60;99.90
15676;DHT22;7938;47.666;9.434;2023-09-12T08:00:05;20.60;99.90
15676;DHT22;7938;47.666;9.434;2023-09-12T08:02:36;20.80;99.90
15676;DHT22;7938;47.666;9.434;2023-09-12T08:05:03;20.80;99.90
15676;DHT22;7938;47.666;9.434;2023-09-12T08:07:30;21.00;99.90
15676;DHT22;7938;47.666;9.434;2023-09-12T08:09:58;21.00;99.90
15676;DHT22;7938;47.666;9.434;2023-09-12T08:12:26;20.90;99.90
15676;DHT22;7938;47.666;9.434;2023-09-12T08:14:53;20.80;99.90
15676;DHT22;7938;47.666;9.434;2023-09-12T08:17:22;20.80;99.90
15676;DHT22;7938;47.666;9.434;2023-09-12T08:19:49;20.70;99.90
15676;DHT22;7938;47.666;9.434;2023-09-12T08:22:16;20.70;99.90
15676;DHT22;7938;47.666;9.434;2023-09-12T08:24:44;20.80;99.90
15676;DHT22;7938;47.666;9.434;2023-09-12T08:27:12;21.00;99.90
15676;DHT22;7938;47.666;9.434;2023-09-12T08:29:39;20.80;99.90
15676;DHT22;7938;47.666;9.434;2023-09-12T08:32:06;20.80;99.90
15676;DHT22;7938;47.666;9.434;2023-09-12T08:34:35;20.80;99.90
15676;DHT22;7938;47.666;9.434;2023-09-12T08:37:01;21.00;99.90
15676;DHT22;7938;47.666;9.434;2023-09-12T08:39:40;21.00;99.90
15676;DHT22;7938;47.666;9.434;2023-09-12T08:42:10;21.10;99.90
15676;DHT22;7938;47.666;9.434;2023-09-12T08:44:38;21.10;99.90
15676;DHT22;7938;47.666;9.434;2023-09-12T08:47:07;21.10;99.90
15676;DHT22;7938;47.666;9.434;2023-09-12T08:49:37;21.10;99.90
15676;DHT22;7938;47.666;9.434;2023-09-12T08:52:04;21.40;99.90
15676;DHT22;7938;47.666;9.434;2023-09-12T08:54:31;21.40;99.90
15676;DHT22;7938;47.666;9.434;2023-09-12T08:56:58;21.50;99.90
15676;DHT22;7938;47.666;9.434;2023-09-12T08:59:27;21.60;99.90
15676;DHT22;7938;47.666;9.434;2023-09-12T09:01:54;21.50;99.90
15676;DHT22;7938;47.666;9.434;2023-09-12T09:04:24;21.50;99.90
15676;DHT22;7938;47.666;9.434;2023-09-12T09:06:55;21.50;99.90
15676;DHT22;7938;47.666;9.434;2023-09-12T09:09:23;21.70;99.90
15676;DHT22;7938;47.666;9.434;2023-09-12T09:11:50;21.70;99.90
15676;DHT22;7938;47.666;9.434;2023-09-12T09:14:17;21.80;99.90
15676;DHT22;7938;47.666;9.434;2023-09-12T09:16:44;21.90;99.90
15676;DHT22;7938;47.666;9.434;2023-09-12T09:19:11;22.00;99.90
15676;DHT22;7938;47.666;9.434;2023-09-12T09:21:38;22.00;99.90
15676;DHT22;7938;47.666;9.434;2023-09-12T09:24:09;22.20;99.90
15676;DHT22;7938;47.666;9.434;2023-09-12T09:26:44;22.30;99.90
15676;DHT22;7938;47.666;9.434;2023-09-12T09:29:14;22.10;99.90
15676;DHT22;7938;47.666;9.434;2023-09-12T09:31:41;22.00;99.90
15676;DHT22;7938;47.666;9.434;2023-09-12T09:34:12;22.10;99.90
15676;DHT22;7938;47.666;9.434;2023-09-12T09:36:43;22.10;99.90
15676;DHT22;7938;47.666;9.434;2023-09-12T09:39:12;22.00;99.90
15676;DHT22;7938;47.666;9.434;2023-09-12T09:41:39;22.20;99.90
15676;DHT22;7938;47.666;9.434;2023-09-12T09:44:07;22.40;99.90
15676;DHT22;7938;47.666;9.434;2023-09-12T09:46:35;22.60;99.90
15676;DHT22;7938;47.666;9.434;2023-09-12T09:49:03;22.80;99.90
15676;DHT22;7938;47.666;9.434;2023-09-12T09:51:31;22.70;99.90
15676;DHT22;7938;47.666;9.434;2023-09-12T09:53:58;22.50;99.90
15676;DHT22;7938;47.666;9.434;2023-09-12T09:56:27;22.70;99.90
15676;DHT22;7938;47.666;9.434;2023-09-12T09:58:55;22.80;99.90
15676;DHT22;7938;47.666;9.434;2023-09-12T10:01:24;23.00;99.90
15676;DHT22;7938;47.666;9.434;2023-09-12T10:03:57;23.00;99.90
15676;DHT22;7938;47.666;9.434;2023-09-12T10:06:24;23.10;99.90
15676;DHT22;7938;47.666;9.434;2023-09-12T10:08:53;23.30;99.90
15676;DHT22;7938;47.666;9.434;2023-09-12T10:11:23;23.40;99.90
15676;DHT22;7938;47.666;9.434;2023-09-12T10:13:54;23.50;99.90
15676;DHT22;7938;47.666;9.434;2023-09-12T10:16:24;23.70;99.90
15676;DHT22;7938;47.666;9.434;2023-09-12T10:18:58;23.90;99.90
15676;DHT22;7938;47.666;9.434;2023-09-12T10:21:29;24.10;99.90
15676;DHT22;7938;47.666;9.434;2023-09-12T10:23:58;24.30;99.90
15676;DHT22;7938;47.666;9.434;2023-09-12T10:26:26;24.30;99.90
15676;DHT22;7938;47.666;9.434;2023-09-12T10:28:55;24.50;99.90
15676;DHT22;7938;47.666;9.434;2023-09-12T10:31:22;24.50;99.90
15676;DHT22;7938;47.666;9.434;2023-09-12T10:33:50;24.40;99.90
15676;DHT22;7938;47.666;9.434;2023-09-12T10:36:18;24.30;99.90
15676;DHT22;7938;47.666;9.434;2023-09-12T10:38:48;24.20;99.90
15676;DHT22;7938;47.666;9.434;2023-09-12T10:41:16;24.30;99.90
15676;DHT22;7938;47.666;9.434;2023-09-12T10:43:44;23.90;99.90
15676;DHT22;7938;47.666;9.434;2023-09-12T10:46:17;24.10;99.90
15676;DHT22;7938;47.666;9.434;2023-09-12T10:48:43;24.20;99.90
15676;DHT22;7938;47.666;9.434;2023-09-12T10:51:11;24.20;99.90
15676;DHT22;7938;47.666;9.434;2023-09-12T10:53:44;24.30;99.90
15676;DHT22;7938;47.666;9.434;2023-09-12T10:56:17;24.30;99.90
15676;DHT22;7938;47.666;9.434;2023-09-12T10:59:09;24.40;99.90
15676;DHT22;7938;47.666;9.434;2023-09-12T11:01:39;24.40;99.90
15676;DHT22;7938;47.666;9.434;2023-09-12T11:04:31;24.30;99.90
15676;DHT22;7938;47.666;9.434;2023-09-12T11:07:00;24.30;99.90
15676;DHT22;7938;47.666;9.434;2023-09-12T11:09:27;24.50;99.90
15676;DHT22;7938;47.666;9.434;2023-09-12T11:11:57;24.40;99.90
15676;DHT22;7938;47.666;9.434;2023-09-12T11:14:25;24.40;99.90
15676;DHT22;7938;47.666;9.434;2023-09-12T11:17:23;24.60;99.90
15676;DHT22;7938;47.666;9.434;2023-09-12T11:19:51;24.30;99.90
15676;DHT22;7938;47.666;9.434;2023-09-12T11:22:26;24.80;99.90
15676;DHT22;7938;47.666;9.434;2023-09-12T11:24:54;24.80;99.90
15676;DHT22;7938;47.666;9.434;2023-09-12T11:27:24;24.90;99.90
15676;DHT22;7938;47.666;9.434;2023-09-12T11:29:52;25.00;99.90
15676;DHT22;7938;47.666;9.434;2023-09-12T11:32:31;25.10;99.90
15676;DHT22;7938;47.666;9.434;2023-09-12T11:34:59;25.10;99.90
15676;DHT22;7938;47.666;9.434;2023-09-12T11:37:32;25.30;99.90
15676;DHT22;7938;47.666;9.434;2023-09-12T11:40:01;25.60;99.90
15676;DHT22;7938;47.666;9.434;2023-09-12T11:42:28;25.50;99.90
15676;DHT22;7938;47.666;9.434;2023-09-12T11:44:56;25.50;99.90
15676;DHT22;7938;47.666;9.434;2023-09-12T11:47:23;25.80;99.90
15676;DHT22;7938;47.666;9.434;2023-09-12T11:49:52;26.10;99.90
15676;DHT22;7938;47.666;9.434;2023-09-12T11:52:19;26.30;99.90
15676;DHT22;7938;47.666;9.434;2023-09-12T11:54:47;26.70;99.90
15676;DHT22;7938;47.666;9.434;2023-09-12T11:57:14;26.70;99.90
15676;DHT22;7938;47.666;9.434;2023-09-12T11:59:43;26.70;99.30
15676;DHT22;7938;47.666;9.434;2023-09-12T12:02:12;26.60;99.90
15676;DHT22;7938;47.666;9.434;2023-09-12T12:04:41;26.60;99.90
15676;DHT22;7938;47.666;9.434;2023-09-12T12:07:10;26.40;99.90
15676;DHT22;7938;47.666;9.434;2023-09-12T12:09:37;26.40;99.90
15676;DHT22;7938;47.666;9.434;2023-09-12T12:12:08;26.30;99.90
15676;DHT22;7938;47.666;9.434;2023-09-12T12:14:35;26.30;99.90
15676;DHT22;7938;47.666;9.434;2023-09-12T12:17:07;26.10;99.90
15676;DHT22;7938;47.666;9.434;2023-09-12T12:19:34;26.10;99.90
15676;DHT22;7938;47.666;9.434;2023-09-12T12:22:02;26.10;99.90
15676;DHT22;7938;47.666;9.434;2023-09-12T12:24:38;26.20;99.90
15676;DHT22;7938;47.666;9.434;2023-09-12T12:27:05;26.20;99.90
15676;DHT22;7938;47.666;9.434;2023-09-12T12:29:33;26.20;99.90
15676;DHT22;7938;47.666;9.434;2023-09-12T12:32:00;26.50;99.40
15676;DHT22;7938;47.666;9.434;2023-09-12T12:34:28;26.50;99.70
15676;DHT22;7938;47.666;9.434;2023-09-12T12:36:55;26.60;99.90
15676;DHT22;7938;47.666;9.434;2023-09-12T12:39:22;26.60;99.80
15676;DHT22;7938;47.666;9.434;2023-09-12T12:41:53;26.40;99.90
15676;DHT22;7938;47.666;9.434;2023-09-12T12:44:20;26.70;98.70
15676;DHT22;7938;47.666;9.434;2023-09-12T12:46:51;26.80;98.90
15676;DHT22;7938;47.666;9.434;2023-09-12T12:49:18;26.90;97.80
15676;DHT22;7938;47.666;9.434;2023-09-12T12:51:45;26.90;97.40
15676;DHT22;7938;47.666;9.434;2023-09-12T12:54:13;26.90;97.40
15676;DHT22;7938;47.666;9.434;2023-09-12T12:56:40;26.90;96.80
15676;DHT22;7938;47.666;9.434;2023-09-12T12:59:09;27.20;97.10
15676;DHT22;7938;47.666;9.434;2023-09-12T13:01:37;27.50;96.30
15676;DHT22;7938;47.666;9.434;2023-09-12T13:04:05;27.40;95.70
15676;DHT22;7938;47.666;9.434;2023-09-12T13:06:33;27.50;96.20
15676;DHT22;7938;47.666;9.434;2023-09-12T13:09:02;27.40;96.80
15676;DHT22;7938;47.666;9.434;2023-09-12T13:11:31;27.20;98.10
15676;DHT22;7938;47.666;9.434;2023-09-12T13:14:00;26.90;99.30
15676;DHT22;7938;47.666;9.434;2023-09-12T13:16:28;26.50;99.90
15676;DHT22;7938;47.666;9.434;2023-09-12T13:18:55;26.40;99.70
15676;DHT22;7938;47.666;9.434;2023-09-12T13:21:22;26.60;99.90
15676;DHT22;7938;47.666;9.434;2023-09-12T13:23:48;26.70;99.50
15676;DHT22;7938;47.666;9.434;2023-09-12T13:26:15;27.10;99.30
15676;DHT22;7938;47.666;9.434;2023-09-12T13:28:42;27.40;99.90
15676;DHT22;7938;47.666;9.434;2023-09-12T13:31:10;27.30;99.80
15676;DHT22;7938;47.666;9.434;2023-09-12T13:33:39;27.60;99.00
15676;DHT22;7938;47.666;9.434;2023-09-12T13:36:07;27.10;99.40
15676;DHT22;7938;47.666;9.434;2023-09-12T13:38:34;27.00;99.30
15676;DHT22;7938;47.666;9.434;2023-09-12T13:41:01;27.20;99.40
15676;DHT22;7938;47.666;9.434;2023-09-12T13:43:29;27.20;99.50
15676;DHT22;7938;47.666;9.434;2023-09-12T13:45:57;27.00;98.80
15676;DHT22;7938;47.666;9.434;2023-09-12T13:48:24;27.00;99.50
15676;DHT22;7938;47.666;9.434;2023-09-12T13:50:52;26.50;99.90
15676;DHT22;7938;47.666;9.434;2023-09-12T13:53:19;25.60;99.90
15676;DHT22;7938;47.666;9.434;2023-09-12T13:55:46;25.10;99.90
15676;DHT22;7938;47.666;9.434;2023-09-12T13:58:13;25.10;99.90
15676;DHT22;7938;47.666;9.434;2023-09-12T14:00:40;25.00;99.90
15676;DHT22;7938;47.666;9.434;2023-09-12T14:03:07;25.20;99.90
15676;DHT22;7938;47.666;9.434;2023-09-12T14:05:33;25.20;99.90
15676;DHT22;7938;47.666;9.434;2023-09-12T14:08:02;25.20;99.90
15676;DHT22;7938;47.666;9.434;2023-09-12T14:10:29;25.20;99.90
15676;DHT22;7938;47.666;9.434;2023-09-12T14:12:56;25.20;99.90
15676;DHT22;7938;47.666;9.434;2023-09-12T14:15:23;25.10;99.90
15676;DHT22;7938;47.666;9.434;2023-09-12T14:17:51;25.10;99.90
15676;DHT22;7938;47.666;9.434;2023-09-12T14:20:18;25.10;99.90
15676;DHT22;7938;47.666;9.434;2023-09-12T14:22:45;25.10;99.90
15676;DHT22;7938;47.666;9.434;2023-09-12T14:25:13;25.20;99.90
15676;DHT22;7938;47.666;9.434;2023-09-12T14:27:43;25.20;99.90
15676;DHT22;7938;47.666;9.434;2023-09-12T14:30:11;24.70;99.90
15676;DHT22;7938;47.666;9.434;2023-09-12T14:32:38;24.50;99.90
15676;DHT22;7938;47.666;9.434;2023-09-12T14:35:06;24.50;99.90
15676;DHT22;7938;47.666;9.434;2023-09-12T14:37:33;24.40;99.90
15676;DHT22;7938;47.666;9.434;2023-09-12T14:40:03;24.30;99.90
15676;DHT22;7938;47.666;9.434;2023-09-12T14:42:32;24.10;99.90
15676;DHT22;7938;47.666;9.434;2023-09-12T14:44:59;24.10;99.90
15676;DHT22;7938;47.666;9.434;2023-09-12T14:47:26;24.10;99.90
15676;DHT22;7938;47.666;9.434;2023-09-12T14:49:56;24.20;99.90
15676;DHT22;7938;47.666;9.434;2023-09-12T14:52:22;24.40;99.90
15676;DHT22;7938;47.666;9.434;2023-09-12T14:54:51;24.40;99.90
15676;DHT22;7938;47.666;9.434;2023-09-12T14:57:18;24.30;99.10
15676;DHT22;7938;47.666;9.434;2023-09-12T14:59:47;23.90;98.10
15676;DHT22;7938;47.666;9.434;2023-09-12T15:02:13;23.20;98.80
15676;DHT22;7938;47.666;9.434;2023-09-12T15:04:40;23.20;99.20
15676;DHT22;7938;47.666;9.434;2023-09-12T15:07:07;22.90;99.90
15676;DHT22;7938;47.666;9.434;2023-09-12T15:09:34;22.10;99.90
15676;DHT22;7938;47.666;9.434;2023-09-12T15:12:01;21.40;99.90
15676;DHT22;7938;47.666;9.434;2023-09-12T15:14:28;21.40;99.90
15676;DHT22;7938;47.666;9.434;2023-09-12T15:16:57;21.20;99.90
15676;DHT22;7938;47.666;9.434;2023-09-12T15:19:25;21.00;99.90
15676;DHT22;7938;47.666;9.434;2023-09-12T15:21:52;20.90;99.90
15676;DHT22;7938;47.666;9.434;2023-09-12T15:24:19;20.80;99.90
15676;DHT22;7938;47.666;9.434;2023-09-12T15:26:46;20.70;99.90
15676;DHT22;7938;47.666;9.434;2023-09-12T15:29:12;20.80;99.90
15676;DHT22;7938;47.666;9.434;2023-09-12T15:31:39;20.70;99.90
15676;DHT22;7938;47.666;9.434;2023-09-12T15:34:08;20.50;99.90
15676;DHT22;7938;47.666;9.434;2023-09-12T15:36:41;20.40;99.90
15676;DHT22;7938;47.666;9.434;2023-09-12T15:39:07;20.40;99.90
15676;DHT22;7938;47.666;9.434;2023-09-12T15:41:35;20.70;99.90
15676;DHT22;7938;47.666;9.434;2023-09-12T15:44:02;21.40;99.90
15676;DHT22;7938;47.666;9.434;2023-09-12T15:46:29;22.90;99.90
15676;DHT22;7938;47.666;9.434;2023-09-12T15:48:56;24.90;99.90
15676;DHT22;7938;47.666;9.434;2023-09-12T15:51:24;26.60;99.90
15676;DHT22;7938;47.666;9.434;2023-09-12T15:53:51;27.80;96.40
15676;DHT22;7938;47.666;9.434;2023-09-12T15:56:18;28.40;97.00
15676;DHT22;7938;47.666;9.434;2023-09-12T15:58:46;29.30;94.30
15676;DHT22;7938;47.666;9.434;2023-09-12T16:01:13;30.40;94.50
15676;DHT22;7938;47.666;9.434;2023-09-12T16:03:40;31.30;90.60
15676;DHT22;7938;47.666;9.434;2023-09-12T16:06:07;31.70;88.60
15676;DHT22;7938;47.666;9.434;2023-09-12T16:08:35;31.90;86.90
15676;DHT22;7938;47.666;9.434;2023-09-12T16:11:02;31.60;90.60
15676;DHT22;7938;47.666;9.434;2023-09-12T16:13:29;31.70;89.50
15676;DHT22;7938;47.666;9.434;2023-09-12T16:15:56;31.60;90.10
15676;DHT22;7938;47.666;9.434;2023-09-12T16:18:22;31.40;90.20
15676;DHT22;7938;47.666;9.434;2023-09-12T16:20:51;30.90;88.20
15676;DHT22;7938;47.666;9.434;2023-09-12T16:23:19;29.30;92.30
15676;DHT22;7938;47.666;9.434;2023-09-12T16:25:47;28.50;94.70
15676;DHT22;7938;47.666;9.434;2023-09-12T16:28:16;29.40;91.30
15676;DHT22;7938;47.666;9.434;2023-09-12T16:30:43;29.80;91.20
15676;DHT22;7938;47.666;9.434;2023-09-12T16:33:10;29.40;90.60
15676;DHT22;7938;47.666;9.434;2023-09-12T16:35:37;27.30;92.90
15676;DHT22;7938;47.666;9.434;2023-09-12T16:38:04;26.30;95.50
15676;DHT22;7938;47.666;9.434;2023-09-12T16:40:31;25.60;96.90
15676;DHT22;7938;47.666;9.434;2023-09-12T16:43:00;25.00;98.10
15676;DHT22;7938;47.666;9.434;2023-09-12T16:45:27;24.40;98.80
15676;DHT22;7938;47.666;9.434;2023-09-12T16:47:54;23.80;99.90
15676;DHT22;7938;47.666;9.434;2023-09-12T16:50:21;23.50;99.90
15676;DHT22;7938;47.666;9.434;2023-09-12T16:52:49;22.60;99.90
15676;DHT22;7938;47.666;9.434;2023-09-12T16:55:17;22.60;99.90
15676;DHT22;7938;47.666;9.434;2023-09-12T16:57:44;22.50;99.90
15676;DHT22;7938;47.666;9.434;2023-09-12T17:00:13;22.30;99.90
15676;DHT22;7938;47.666;9.434;2023-09-12T17:02:41;22.00;99.90
15676;DHT22;7938;47.666;9.434;2023-09-12T17:05:09;21.90;99.90
15676;DHT22;7938;47.666;9.434;2023-09-12T17:07:37;21.90;99.90
15676;DHT22;7938;47.666;9.434;2023-09-12T17:10:04;21.90;99.90
15676;DHT22;7938;47.666;9.434;2023-09-12T17:12:31;21.80;99.90
15676;DHT22;7938;47.666;9.434;2023-09-12T17:14:58;21.80;99.90
15676;DHT22;7938;47.666;9.434;2023-09-12T17:17:26;21.80;99.90
15676;DHT22;7938;47.666;9.434;2023-09-12T17:19:53;21.80;99.90
15676;DHT22;7938;47.666;9.434;2023-09-12T17:22:20;21.60;99.90
15676;DHT22;7938;47.666;9.434;2023-09-12T17:24:47;21.60;99.90
15676;DHT22;7938;47.666;9.434;2023-09-12T17:27:13;21.40;99.90
15676;DHT22;7938;47.666;9.434;2023-09-12T17:29:41;21.30;99.90
15676;DHT22;7938;47.666;9.434;2023-09-12T17:32:08;21.10;99.90
15676;DHT22;7938;47.666;9.434;2023-09-12T17:34:41;21.00;99.90
15676;DHT22;7938;47.666;9.434;2023-09-12T17:37:08;20.90;99.90
15676;DHT22;7938;47.666;9.434;2023-09-12T17:39:36;20.60;99.90
15676;DHT22;7938;47.666;9.434;2023-09-12T17:42:03;20.30;99.90
15676;DHT22;7938;47.666;9.434;2023-09-12T17:44:30;20.30;99.90
15676;DHT22;7938;47.666;9.434;2023-09-12T17:46:57;20.30;99.90
15676;DHT22;7938;47.666;9.434;2023-09-12T17:49:25;20.30;99.90
15676;DHT22;7938;47.666;9.434;2023-09-12T17:51:53;20.30;99.90
15676;DHT22;7938;47.666;9.434;2023-09-12T17:54:20;20.10;99.90
15676;DHT22;7938;47.666;9.434;2023-09-12T17:56:47;20.20;99.90
15676;DHT22;7938;47.666;9.434;2023-09-12T17:59:14;20.20;99.90
15676;DHT22;7938;47.666;9.434;2023-09-12T18:01:40;20.20;99.90
15676;DHT22;7938;47.666;9.434;2023-09-12T18:04:07;20.20;99.90
15676;DHT22;7938;47.666;9.434;2023-09-12T18:06:35;20.20;99.90
15676;DHT22;7938;47.666;9.434;2023-09-12T18:09:04;20.20;99.90
15676;DHT22;7938;47.666;9.434;2023-09-12T18:11:31;20.10;99.90
15676;DHT22;7938;47.666;9.434;2023-09-12T18:13:58;20.00;99.90
15676;DHT22;7938;47.666;9.434;2023-09-12T18:16:25;20.40;99.90
15676;DHT22;7938;47.666;9.434;2023-09-12T18:18:52;19.90;99.90
15676;DHT22;7938;47.666;9.434;2023-09-12T18:21:19;20.20;99.90
15676;DHT22;7938;47.666;9.434;2023-09-12T18:23:46;20.10;99.90
15676;DHT22;7938;47.666;9.434;2023-09-12T18:26:14;20.00;99.90
15676;DHT22;7938;47.666;9.434;2023-09-12T18:28:42;20.00;99.90
15676;DHT22;7938;47.666;9.434;2023-09-12T18:31:11;20.10;99.90
15676;DHT22;7938;47.666;9.434;2023-09-12T18:33:38;19.90;99.90
15676;DHT22;7938;47.666;9.434;2023-09-12T18:36:06;19.80;99.90
15676;DHT22;7938;47.666;9.434;2023-09-12T18:38:34;19.70;99.90
15676;DHT22;7938;47.666;9.434;2023-09-12T18:41:01;19.60;99.90
15676;DHT22;7938;47.666;9.434;2023-09-12T18:43:30;19.40;99.90
15676;DHT22;7938;47.666;9.434;2023-09-12T18:45:57;19.40;99.90
15676;DHT22;7938;47.666;9.434;2023-09-12T18:48:24;19.30;99.90
15676;DHT22;7938;47.666;9.434;2023-09-12T18:50:51;19.20;99.90
15676;DHT22;7938;47.666;9.434;2023-09-12T18:53:19;19.10;99.90
15676;DHT22;7938;47.666;9.434;2023-09-12T18:55:46;19.10;99.90
15676;DHT22;7938;47.666;9.434;2023-09-12T18:58:15;19.10;99.90
15676;DHT22;7938;47.666;9.434;2023-09-12T19:00:44;19.00;99.90
15676;DHT22;7938;47.666;9.434;2023-09-12T19:03:11;19.10;99.90
15676;DHT22;7938;47.666;9.434;2023-09-12T19:05:39;19.00;99.90
15676;DHT22;7938;47.666;9.434;2023-09-12T19:08:06;19.00;99.90
15676;DHT22;7938;47.666;9.434;2023-09-12T19:10:33;19.00;99.90
15676;DHT22;7938;47.666;9.434;2023-09-12T19:13:00;18.90;99.90
15676;DHT22;7938;47.666;9.434;2023-09-12T19:15:30;19.00;99.90
15676;DHT22;7938;47.666;9.434;2023-09-12T19:17:58;19.00;99.90
15676;DHT22;7938;47.666;9.434;2023-09-12T19:20:25;19.00;99.90
15676;DHT22;7938;47.666;9.434;2023-09-12T19:22:53;19.00;99.90
15676;DHT22;7938;47.666;9.434;2023-09-12T19:25:20;19.00;99.90
15676;DHT22;7938;47.666;9.434;2023-09-12T19:27:47;19.00;99.90
15676;DHT22;7938;47.666;9.434;2023-09-12T19:30:14;19.00;99.90
15676;DHT22;7938;47.666;9.434;2023-09-12T19:32:41;19.00;99.90
15676;DHT22;7938;47.666;9.434;2023-09-12T19:35:10;19.10;99.90
15676;DHT22;7938;47.666;9.434;2023-09-12T19:37:37;19.20;99.90
15676;DHT22;7938;47.666;9.434;2023-09-12T19:40:08;19.20;99.90
15676;DHT22;7938;47.666;9.434;2023-09-12T19:42:37;19.20;99.90
15676;DHT22;7938;47.666;9.434;2023-09-12T19:45:05;19.20;99.90
15676;DHT22;7938;47.666;9.434;2023-09-12T19:47:32;19.30;99.90
15676;DHT22;7938;47.666;9.434;2023-09-12T19:50:00;19.30;99.90
15676;DHT22;7938;47.666;9.434;2023-09-12T19:52:28;19.20;99.90